Time;durP1;ratioP1;P1;durP2;ratioP2;P2;SDS_P1;SDS_P2;PMS_P1;PMS_P2;Temp;Humidity;BMP_temperature;BMP_pressure;BME280_temperature;BME280_humidity;BME280_pressure;Samples;Min_cycle;Max_cycle;Signal;HPM_P1;HPM_P2
2021/04/26 05:06:02;;;;;;;5.85;4.05;;;7.10;40.80;;;;;;6202832;22;21188;-91
2021/04/26 05:08:28;;;;;;;8.63;3.55;;;7.30;40.60;;;;;;6183438;23;20601;-92
2021/04/26 05:11:29;;;;;;;8.43;3.90;;;7.10;40.10;;;;;;6189421;23;20154;-91
2021/04/26 05:13:55;;;;;;;8.02;4.03;;;7.40;40.10;;;;;;6190637;23;20617;-91
2021/04/26 05:16:20;;;;;;;7.27;4.90;;;7.40;39.90;;;;;;6189275;23;20154;-91
2021/04/26 05:18:56;;;;;;;8.40;4.50;;;7.30;39.90;;;;;;6189357;23;20282;-91
2021/04/26 05:21:22;;;;;;;5.45;3.63;;;7.40;39.80;;;;;;6189942;23;20139;-91
2021/04/26 05:23:55;;;;;;;8.55;5.03;;;7.60;39.70;;;;;;6188620;23;20878;-90
2021/04/26 05:26:22;;;;;;;7.45;4.72;;;7.50;39.40;;;;;;6189195;23;20155;-91
2021/04/26 05:29:21;;;;;;;5.30;4.07;;;7.70;39.60;;;;;;6188781;23;20182;-90
2021/04/26 05:31:47;;;;;;;6.32;4.30;;;7.50;39.50;;;;;;6189778;23;20155;-88
2021/04/26 05:34:26;;;;;;;7.87;4.90;;;7.70;39.70;;;;;;6190760;23;20151;-92
2021/04/26 05:36:52;;;;;;;6.05;3.92;;;8.00;39.00;;;;;;6190066;23;20151;-93
2021/04/26 05:39:18;;;;;;;8.80;3.70;;;8.20;39.00;;;;;;6189308;23;20491;-92
2021/04/26 05:41:44;;;;;;;7.03;4.73;;;8.00;38.70;;;;;;6188676;23;20147;-93
2021/04/26 05:44:23;;;;;;;4.03;3.63;;;8.00;38.70;;;;;;6188032;23;20381;-93
2021/04/26 05:46:48;;;;;;;4.78;3.35;;;8.70;39.10;;;;;;6189596;23;20382;-94
2021/04/26 05:49:15;;;;;;;3.57;3.20;;;8.70;38.70;;;;;;6192378;23;20219;-93
2021/04/26 05:51:41;;;;;;;5.70;3.38;;;9.50;37.10;;;;;;6190098;23;20210;-92
2021/04/26 05:54:20;;;;;;;8.03;4.23;;;10.20;33.70;;;;;;6188863;23;20159;-92
2021/04/26 05:56:47;;;;;;;3.57;2.73;;;11.20;30.20;;;;;;6190032;23;20228;-93
2021/04/26 05:59:13;;;;;;;3.53;3.20;;;11.90;29.40;;;;;;6189023;23;20371;-93
2021/04/26 06:01:39;;;;;;;5.67;3.93;;;13.00;28.00;;;;;;6190068;23;20370;-94
2021/04/26 06:04:23;;;;;;;4.17;3.43;;;13.80;26.30;;;;;;6187935;23;20379;-91
2021/04/26 06:06:49;;;;;;;5.73;3.50;;;14.70;25.10;;;;;;6189959;23;20209;-92
2021/04/26 06:09:15;;;;;;;4.07;3.40;;;15.30;23.20;;;;;;6188998;23;20728;-91
2021/04/26 06:11:41;;;;;;;4.53;3.40;;;15.40;22.50;;;;;;6187868;23;20159;-91
2021/04/26 06:14:13;;;;;;;4.70;4.03;;;16.40;22.30;;;;;;6188288;23;20448;-92
2021/04/26 06:16:39;;;;;;;6.33;4.10;;;17.20;21.50;;;;;;6187659;23;20390;-91
2021/04/26 06:19:12;;;;;;;7.60;4.10;;;17.70;20.40;;;;;;6187810;23;20390;-91
2021/04/26 06:21:37;;;;;;;5.90;3.67;;;18.10;19.30;;;;;;6187824;23;20155;-92
2021/04/26 06:24:05;;;;;;;5.97;4.50;;;18.60;18.90;;;;;;6189773;23;20453;-93
2021/04/26 06:26:31;;;;;;;5.83;3.73;;;18.70;18.50;;;;;;6189575;23;20151;-93
2021/04/26 06:29:17;;;;;;;4.40;4.07;;;19.20;18.40;;;;;;6190090;23;20498;-92
2021/04/26 06:31:43;;;;;;;6.10;4.77;;;19.80;17.90;;;;;;6194497;23;20155;-93
2021/04/26 06:34:22;;;;;;;5.10;4.60;;;20.00;17.40;;;;;;6194967;23;20363;-93
2021/04/26 06:36:47;;;;;;;4.70;4.30;;;20.00;16.40;;;;;;6188861;23;20197;-92
2021/04/26 06:39:13;;;;;;;4.40;3.97;;;20.20;16.30;;;;;;6188256;23;20374;-91
2021/04/26 06:41:39;;;;;;;5.90;4.33;;;20.90;16.10;;;;;;6190313;23;20159;-91
2021/04/26 06:44:05;;;;;;;6.33;4.53;;;21.10;16.10;;;;;;6191939;23;20377;-95
2021/04/26 06:46:46;;;;;;;5.17;4.67;;;21.70;15.60;;;;;;6198578;23;20321;-95
2021/04/26 06:49:12;;;;;;;5.03;4.53;;;21.60;14.90;;;;;;6191656;23;20444;-93
2021/04/26 06:52:05;;;;;;;4.80;4.30;;;21.60;14.60;;;;;;6197101;23;20360;-92
2021/04/26 06:54:31;;;;;;;4.97;4.53;;;21.50;14.60;;;;;;6192240;23;20186;-92
2021/04/26 06:56:58;;;;;;;5.13;4.33;;;21.40;14.60;;;;;;6189263;23;20365;-95
2021/04/26 06:59:24;;;;;;;5.50;4.30;;;20.80;14.50;;;;;;6189619;23;20389;-93
2021/04/26 07:01:50;;;;;;;5.93;5.43;;;20.60;15.00;;;;;;6189857;23;20387;-92
2021/04/26 07:04:16;;;;;;;6.17;5.10;;;19.70;15.70;;;;;;6190534;23;20213;-92
2021/04/26 07:06:50;;;;;;;5.83;4.50;;;19.50;17.50;;;;;;6187761;23;20394;-92
2021/04/26 07:09:16;;;;;;;6.33;5.00;;;18.90;17.80;;;;;;6134819;23;20175;-93
2021/04/26 07:15:06;;;;;;;5.40;4.90;;;17.50;18.70;;;;;;6164329;23;20151;-90
2021/04/26 07:18:11;;;;;;;5.77;4.80;;;17.50;18.60;;;;;;6139125;23;20391;-93
2021/04/26 07:20:37;;;;;;;8.07;4.60;;;17.50;18.90;;;;;;6140699;23;20386;-94
2021/04/26 07:23:03;;;;;;;6.20;5.30;;;17.00;19.70;;;;;;6140866;23;20380;-94
2021/04/26 07:25:39;;;;;;;6.60;5.40;;;17.00;20.20;;;;;;6140421;23;20447;-93
2021/04/26 07:28:05;;;;;;;5.43;4.60;;;16.40;20.50;;;;;;6135788;23;20390;-91
2021/04/26 07:30:52;;;;;;;6.43;5.60;;;16.00;20.60;;;;;;6134838;23;20379;-92
2021/04/26 07:33:18;;;;;;;5.40;4.90;;;15.90;20.50;;;;;;6136033;23;20457;-91
2021/04/26 07:39:07;;;;;;;6.40;5.50;;;15.50;20.70;;;;;;6161220;23;20139;-92
2021/04/26 07:41:37;;;;;;;7.33;5.07;;;15.70;21.30;;;;;;6135984;23;20934;-92
2021/04/26 07:44:03;;;;;;;6.83;5.50;;;15.80;22.50;;;;;;6138716;23;20885;-95
2021/04/26 07:47:22;;;;;;;5.47;4.97;;;15.70;22.80;;;;;;6137810;23;20846;-93
2021/04/26 07:49:55;;;;;;;5.70;4.93;;;15.30;21.80;;;;;;6155688;23;20379;-85
2021/04/26 07:52:20;;;;;;;6.67;5.43;;;15.30;21.60;;;;;;6129498;23;20418;-85
2021/04/26 07:55:05;;;;;;;7.57;5.40;;;15.10;22.00;;;;;;6159174;23;20430;-85
2021/04/26 07:57:32;;;;;;;6.40;4.93;;;14.80;22.60;;;;;;6128902;23;20238;-85
2021/04/26 08:00:02;;;;;;;6.47;5.05;;;14.80;22.60;;;;;;6127952;23;20452;-84
2021/04/26 08:02:28;;;;;;;5.87;5.13;;;14.80;22.60;;;;;;6130149;23;20206;-85
2021/04/26 08:04:55;;;;;;;6.43;5.70;;;14.80;22.70;;;;;;6129408;23;20394;-85
2021/04/26 08:07:29;;;;;;;5.80;5.30;;;15.10;22.60;;;;;;6161355;23;20417;-84
2021/04/26 08:09:55;;;;;;;8.20;5.13;;;14.70;22.90;;;;;;6183626;23;20403;-84
2021/04/26 08:12:29;;;;;;;6.53;5.87;;;14.70;22.90;;;;;;6183253;23;20422;-84
2021/04/26 08:14:55;;;;;;;6.40;4.77;;;14.70;23.40;;;;;;6183869;23;20150;-84
2021/04/26 08:17:28;;;;;;;5.67;5.07;;;14.20;23.60;;;;;;6185300;23;20390;-84
2021/04/26 08:19:54;;;;;;;6.60;5.17;;;14.10;24.20;;;;;;6183783;23;20175;-84
2021/04/26 08:22:32;;;;;;;6.45;5.00;;;14.30;24.80;;;;;;6185113;23;20375;-84
2021/04/26 08:24:58;;;;;;;5.07;4.50;;;14.10;24.30;;;;;;6183782;23;20150;-83
2021/04/26 08:27:24;;;;;;;6.20;4.72;;;14.00;25.00;;;;;;6183037;23;20715;-84
2021/04/26 08:29:50;;;;;;;6.03;4.67;;;14.50;25.10;;;;;;6183700;23;20170;-84
2021/04/26 08:35:41;;;;;;;5.33;4.73;;;14.90;24.00;;;;;;6198969;23;20123;-94
2021/04/26 08:38:22;;;;;;;8.00;5.73;;;14.70;23.90;;;;;;6193936;23;21076;-92
2021/04/26 08:40:48;;;;;;;5.73;4.83;;;14.70;25.10;;;;;;6188142;23;20745;-92
2021/04/26 08:47:06;;;;;;;7.00;4.80;;;14.90;24.20;;;;;;6190309;23;20370;-92
2021/04/26 08:49:32;;;;;;;7.00;5.90;;;15.10;23.70;;;;;;6190043;23;20928;-90
2021/04/26 08:52:11;;;;;;;6.50;5.00;;;15.00;24.20;;;;;;6193285;23;20374;-94
2021/04/26 08:54:37;;;;;;;6.80;5.80;;;14.80;23.90;;;;;;6199195;23;20397;-93
2021/04/26 08:57:16;;;;;;;5.10;4.60;;;15.00;24.70;;;;;;6198242;23;20401;-95
2021/04/26 08:59:43;;;;;;;5.60;5.10;;;15.30;24.80;;;;;;6171210;23;20389;-94
2021/04/26 09:02:13;;;;;;;6.93;5.37;;;15.50;24.80;;;;;;6194658;23;20378;-92
2021/04/26 09:04:52;;;;;;;8.13;5.03;;;15.60;25.30;;;;;;6190002;23;20386;-92
2021/04/26 09:07:43;;;;;;;8.13;5.20;;;15.60;24.30;;;;;;6190492;23;20433;-94
2021/04/26 09:10:12;;;;;;;7.00;5.87;;;15.80;23.60;;;;;;6189794;23;20382;-91
2021/04/26 09:16:02;;;;;;;8.73;5.27;;;15.90;24.00;;;;;;6190988;23;20389;-92
2021/04/26 09:18:44;;;;;;;6.13;5.47;;;15.60;24.20;;;;;;6189338;23;20386;-93
2021/04/26 09:21:34;;;;;;;6.67;5.10;;;15.50;23.90;;;;;;6192546;23;20386;-92
2021/04/26 09:24:35;;;;;;;6.13;5.60;;;15.60;23.40;;;;;;6196802;23;20382;-92
2021/04/26 09:27:01;;;;;;;5.90;4.97;;;15.40;23.80;;;;;;6200824;23;20373;-93
2021/04/26 09:29:57;;;;;;;5.20;4.67;;;15.10;24.30;;;;;;6202919;23;20389;-92
2021/04/26 09:32:23;;;;;;;6.77;5.97;;;15.90;24.40;;;;;;6201488;23;20422;-92
2021/04/26 14:36:48;;;;;;;4.90;4.40;;;20.30;13.90;;;;;;6196062;23;20830;-92
2021/04/26 14:39:13;;;;;;;5.20;4.70;;;20.50;13.70;;;;;;6167601;23;20386;-92
2021/04/26 14:41:40;;;;;;;5.67;5.17;;;20.90;13.40;;;;;;6167535;23;20518;-91
2021/04/26 14:44:06;;;;;;;5.17;4.60;;;20.90;13.70;;;;;;6165423;23;20155;-88
2021/04/26 14:46:35;;;;;;;5.10;4.57;;;20.70;14.20;;;;;;6166573;23;20830;-91
2021/04/26 14:49:00;;;;;;;4.97;4.40;;;20.90;13.20;;;;;;6164862;23;20353;-91
2021/04/26 14:51:27;;;;;;;7.93;5.87;;;20.70;14.10;;;;;;6163976;23;20771;-89
2021/04/26 14:53:53;;;;;;;6.27;5.77;;;20.60;14.00;;;;;;6163043;23;20630;-90
2021/04/26 14:56:38;;;;;;;5.80;4.60;;;20.60;13.60;;;;;;6174145;23;20375;-96
2021/04/26 14:59:06;;;;;;;6.43;4.77;;;20.20;14.00;;;;;;6169150;23;20582;-93
2021/04/26 15:01:34;;;;;;;5.77;5.27;;;20.30;13.90;;;;;;6164683;23;20376;-95
2021/04/26 15:04:00;;;;;;;7.70;5.30;;;20.50;13.10;;;;;;6164028;23;20378;-94
2021/04/26 15:06:35;;;;;;;4.77;4.37;;;20.50;13.90;;;;;;6165463;23;20370;-91
2021/04/26 15:09:02;;;;;;;6.87;5.43;;;20.40;13.10;;;;;;6179824;23;20147;-95
2021/04/26 15:11:50;;;;;;;7.10;4.70;;;20.00;13.00;;;;;;6170298;23;20402;-95
2021/04/26 15:17:39;;;;;;;5.57;5.07;;;20.60;13.70;;;;;;6200541;23;20370;-95
2021/04/26 15:23:27;;;;;;;8.20;5.00;;;20.30;13.90;;;;;;6196836;23;20835;-94
2021/04/26 15:29:15;;;;;;;6.47;5.87;;;20.30;13.70;;;;;;6196808;23;20419;-93
2021/04/26 15:39:00;;;;;;;4.80;4.40;;;20.80;14.10;;;;;;6193995;23;20142;-93
2021/04/26 15:41:26;;;;;;;4.53;4.07;;;20.60;13.00;;;;;;6166071;23;20406;-92
2021/04/26 15:44:20;;;;;;;4.93;4.30;;;20.40;13.70;;;;;;6167472;23;20688;-94
2021/04/26 15:46:46;;;;;;;4.40;4.00;;;20.60;13.40;;;;;;6166993;23;20146;-92
2021/04/26 15:50:05;;;;;;;4.50;4.10;;;20.60;13.30;;;;;;6169012;23;20375;-92
2021/04/26 15:52:31;;;;;;;5.00;4.60;;;20.60;13.10;;;;;;6167817;23;20254;-92
2021/04/26 15:54:57;;;;;;;7.37;4.03;;;20.80;14.70;;;;;;6168129;23;20378;-94
2021/04/26 16:00:45;;;;;;;7.27;4.73;;;20.70;13.30;;;;;;6197804;23;20350;-94
2021/04/26 17:47:33;;;;;;;3.47;3.13;;;20.80;10.20;;;;;;6161039;23;20443;-91
2021/04/26 17:49:59;;;;;;;5.00;3.83;;;20.90;10.30;;;;;;6134624;23;20383;-92
2021/04/26 17:52:25;;;;;;;4.27;3.50;;;20.60;10.80;;;;;;6135860;23;20426;-93
2021/04/26 17:55:09;;;;;;;4.40;3.67;;;21.00;10.90;;;;;;6136923;23;20171;-93
2021/04/26 17:57:35;;;;;;;4.03;3.63;;;20.90;11.30;;;;;;6136063;23;20147;-93
2021/04/26 18:00:16;;;;;;;4.13;3.37;;;20.40;10.60;;;;;;6136360;23;20386;-92
2021/04/26 18:02:48;;;;;;;4.87;3.93;;;20.20;11.20;;;;;;6136148;23;20445;-93
2021/04/26 18:05:15;;;;;;;5.80;3.67;;;20.10;11.90;;;;;;6136151;23;20688;-93
2021/04/26 18:08:09;;;;;;;4.30;3.60;;;19.90;12.20;;;;;;6134783;23;20380;-92
2021/04/26 18:10:35;;;;;;;5.90;5.40;;;20.20;12.70;;;;;;6139209;23;20455;-91
2021/04/26 18:13:01;;;;;;;5.13;4.30;;;19.80;13.90;;;;;;6139175;23;20418;-90
2021/04/26 18:15:50;;;;;;;4.13;3.73;;;19.40;14.30;;;;;;6137169;23;20376;-90
2021/04/26 18:18:15;;;;;;;6.50;4.90;;;19.40;14.30;;;;;;6136227;23;20156;-91
2021/04/26 18:20:41;;;;;;;5.43;4.50;;;19.40;14.60;;;;;;6137206;23;20439;-91
2021/04/26 18:26:29;;;;;;;5.33;4.23;;;19.40;15.00;;;;;;6162004;23;20119;-91
2021/04/26 18:32:17;;;;;;;5.87;4.43;;;19.10;15.30;;;;;;6160232;23;20156;-92
2021/04/26 18:34:51;;;;;;;4.87;4.33;;;18.90;15.70;;;;;;6134301;23;20387;-92
2021/04/26 18:37:17;;;;;;;5.00;4.50;;;18.70;16.20;;;;;;6135377;23;20395;-91
2021/04/26 18:39:45;;;;;;;4.67;4.27;;;18.70;16.20;;;;;;6133948;23;20394;-92
2021/04/26 18:42:10;;;;;;;5.67;5.10;;;18.50;16.70;;;;;;6134719;23;20156;-92
2021/04/26 18:44:51;;;;;;;4.53;4.00;;;18.10;17.10;;;;;;6135020;23;20387;-93
2021/04/26 18:47:18;;;;;;;6.37;4.40;;;17.70;17.10;;;;;;6161229;23;20226;-92
2021/04/26 18:49:45;;;;;;;4.50;4.10;;;17.70;16.70;;;;;;6188968;23;20388;-92
2021/04/26 18:52:11;;;;;;;10.40;4.50;;;17.60;17.00;;;;;;6188654;23;20386;-94
2021/04/26 18:58:00;;;;;;;4.53;4.13;;;17.20;17.40;;;;;;6192552;23;20432;-93
2021/04/26 19:01:03;;;;;;;4.70;4.30;;;17.10;17.90;;;;;;6190698;23;20398;-92
2021/04/26 19:03:29;;;;;;;4.70;4.13;;;17.20;18.10;;;;;;6189907;23;20421;-94
2021/04/26 19:06:40;;;;;;;6.00;4.67;;;17.30;19.20;;;;;;6189545;23;20378;-92
2021/04/26 19:09:06;;;;;;;4.90;4.47;;;17.20;18.10;;;;;;6190707;23;20373;-92
2021/04/26 19:11:50;;;;;;;7.67;4.20;;;17.10;18.60;;;;;;6189217;23;20422;-94
2021/04/26 19:14:16;;;;;;;5.63;3.97;;;16.80;18.10;;;;;;6190781;23;20489;-94
2021/04/26 19:16:45;;;;;;;8.00;4.67;;;16.40;17.60;;;;;;6190570;23;20379;-94
2021/04/26 19:19:10;;;;;;;4.97;4.47;;;16.60;18.10;;;;;;6191378;23;20389;-94
2021/04/26 19:21:36;;;;;;;4.67;4.27;;;16.30;18.90;;;;;;6193253;23;20370;-93
2021/04/26 19:24:41;;;;;;;4.90;4.23;;;16.10;18.50;;;;;;6189685;23;20175;-92
2021/04/26 19:27:07;;;;;;;6.20;5.20;;;16.20;18.40;;;;;;6192106;23;20406;-92
2021/04/26 19:30:28;;;;;;;4.03;3.73;;;16.20;18.70;;;;;;6191137;23;20370;-92
2021/04/26 19:32:55;;;;;;;4.43;4.03;;;15.70;18.10;;;;;;6190227;23;20798;-93
2021/04/26 19:35:28;;;;;;;7.57;4.93;;;15.80;18.50;;;;;;6188252;23;20391;-92
2021/04/26 19:37:56;;;;;;;5.40;4.90;;;15.60;18.90;;;;;;6191081;23;20763;-94
2021/04/26 19:41:03;;;;;;;6.13;4.70;;;15.50;18.60;;;;;;6196518;23;20818;-95
2021/04/26 19:43:31;;;;;;;7.70;5.13;;;15.50;18.60;;;;;;6201043;23;20374;-96
2021/04/26 19:46:02;;;;;;;5.10;4.13;;;15.50;19.20;;;;;;6199707;23;20421;-95
2021/04/26 19:55:36;;;;;;;6.23;4.50;;;15.40;19.20;;;;;;6193730;23;20681;-91
2021/04/26 19:58:04;;;;;;;4.80;4.30;;;15.20;19.10;;;;;;6191092;23;20468;-92
2021/04/26 20:00:30;;;;;;;5.90;4.80;;;14.90;18.90;;;;;;6189401;23;20382;-92
2021/04/26 20:02:56;;;;;;;4.57;4.20;;;14.70;18.80;;;;;;6192035;23;20478;-94
2021/04/26 20:05:22;;;;;;;4.90;4.40;;;14.80;19.80;;;;;;6190342;23;20712;-93
2021/04/26 20:07:51;;;;;;;6.47;5.30;;;14.90;19.30;;;;;;6197771;23;20391;-94
2021/04/26 20:10:19;;;;;;;5.00;4.50;;;15.20;19.70;;;;;;6193177;23;20392;-93
2021/04/26 20:13:10;;;;;;;4.57;4.13;;;15.30;19.60;;;;;;6161182;23;20921;-94
2021/04/26 21:13:16;;;;;;;3.97;3.60;;;14.10;21.30;;;;;;6159081;23;20451;-93
2021/04/26 21:15:41;;;;;;;4.43;3.90;;;14.20;21.50;;;;;;6135352;23;20159;-94
2021/04/26 21:18:07;;;;;;;3.90;3.60;;;14.20;21.60;;;;;;6133319;23;20148;-93
2021/04/26 21:20:33;;;;;;;3.77;3.47;;;14.10;21.80;;;;;;6133711;23;20151;-93
2021/04/26 21:22:59;;;;;;;5.37;3.93;;;14.10;21.80;;;;;;6133684;23;20375;-94
2021/04/26 21:25:25;;;;;;;7.80;4.90;;;13.90;21.50;;;;;;6133422;23;20152;-91
2021/04/26 21:28:15;;;;;;;3.93;3.63;;;13.70;21.60;;;;;;6137158;23;20903;-93
2021/04/26 21:30:41;;;;;;;7.40;3.30;;;13.70;21.50;;;;;;6133579;23;20152;-91
2021/04/26 21:33:07;;;;;;;3.87;3.17;;;13.70;21.40;;;;;;6133257;23;21021;-93
2021/04/26 21:35:33;;;;;;;4.00;3.60;;;13.70;21.60;;;;;;6133599;23;20155;-92
2021/04/26 21:41:21;;;;;;;4.20;3.80;;;13.30;21.00;;;;;;6168910;23;20139;-95
2021/04/26 21:56:29;;;;;;;4.85;4.35;;;12.70;21.90;;;;;;6136481;23;20218;-92
2021/04/26 21:58:55;;;;;;;5.80;3.60;;;12.80;22.00;;;;;;6104487;23;20212;-92
2021/04/26 22:04:43;;;;;;;4.30;3.92;;;12.70;21.80;;;;;;6180960;23;20621;-95
2021/04/26 22:10:35;;;;;;;5.07;3.80;;;12.80;22.40;;;;;;6174328;23;20217;-93
2021/04/26 22:17:06;;;;;;;4.22;3.50;;;12.80;21.80;;;;;;6183271;23;20147;-96
2021/04/26 22:19:32;;;;;;;4.40;3.88;;;12.40;21.50;;;;;;6133143;23;20151;-91
2021/04/26 22:22:05;;;;;;;6.03;3.97;;;12.40;22.00;;;;;;6133350;23;20532;-92
2021/04/26 22:24:30;;;;;;;4.22;3.92;;;12.40;22.20;;;;;;6133304;23;20155;-91
2021/04/26 22:27:05;;;;;;;5.75;4.00;;;12.20;22.30;;;;;;6132197;23;20389;-92
2021/04/26 22:29:32;;;;;;;5.22;3.70;;;12.20;22.30;;;;;;6132483;23;20166;-91
2021/04/26 22:32:06;;;;;;;4.60;2.97;;;12.10;22.40;;;;;;6132608;23;20172;-93
2021/04/26 22:34:32;;;;;;;3.83;3.53;;;12.40;22.40;;;;;;6132408;23;20190;-92
2021/04/26 22:36:58;;;;;;;4.87;4.07;;;12.40;22.70;;;;;;6132530;23;20151;-92
2021/04/26 22:39:24;;;;;;;4.78;4.38;;;12.10;22.20;;;;;;6132816;23;20155;-92
2021/04/26 22:41:50;;;;;;;4.20;3.50;;;12.10;22.30;;;;;;6133056;23;20152;-92
2021/04/26 22:44:16;;;;;;;3.17;2.97;;;12.40;22.40;;;;;;6132661;23;20158;-92
2021/04/26 22:46:43;;;;;;;3.38;3.05;;;12.00;22.10;;;;;;6132830;23;20162;-92
2021/04/26 22:49:09;;;;;;;4.53;3.05;;;12.40;22.00;;;;;;6132883;23;20160;-92
2021/04/26 22:51:41;;;;;;;6.00;2.80;;;12.30;22.90;;;;;;6132436;23;20235;-93
2021/04/26 22:54:07;;;;;;;3.20;2.67;;;12.10;23.70;;;;;;6132110;23;20423;-93
2021/04/26 22:56:33;;;;;;;3.70;2.93;;;12.10;24.40;;;;;;6132331;23;20239;-92
2021/04/26 22:58:59;;;;;;;3.55;3.25;;;12.00;24.50;;;;;;6132582;23;20159;-93
2021/04/26 23:01:25;;;;;;;2.60;2.40;;;12.00;24.90;;;;;;6132510;23;20156;-93
2021/04/26 23:03:51;;;;;;;3.87;3.10;;;12.10;25.30;;;;;;6132929;23;20151;-92
2021/04/26 23:06:16;;;;;;;3.10;2.77;;;11.60;25.50;;;;;;6132580;23;20151;-92
2021/04/26 23:08:42;;;;;;;3.20;2.67;;;11.20;25.50;;;;;;6132255;23;20872;-92
2021/04/26 23:11:15;;;;;;;2.93;2.70;;;11.20;25.70;;;;;;6132537;23;20147;-93
2021/04/26 23:13:42;;;;;;;3.70;2.70;;;11.60;26.30;;;;;;6132347;23;20237;-92
2021/04/26 23:16:10;;;;;;;4.70;3.45;;;11.20;26.10;;;;;;6132446;23;20468;-93
2021/04/26 23:18:36;;;;;;;4.60;2.80;;;11.20;26.30;;;;;;6132730;23;20227;-92
2021/04/26 23:21:03;;;;;;;4.05;2.45;;;11.20;26.60;;;;;;6132838;23;20148;-92
2021/04/26 23:23:29;;;;;;;2.88;2.63;;;10.60;26.20;;;;;;6132836;23;20183;-92
2021/04/26 23:25:56;;;;;;;3.40;3.10;;;11.00;26.90;;;;;;6132489;23;20156;-94
2021/04/26 23:28:22;;;;;;;2.80;2.60;;;10.70;26.70;;;;;;6132431;23;20152;-92
2021/04/26 23:30:48;;;;;;;5.77;3.60;;;10.80;26.90;;;;;;6132693;23;20159;-92
2021/04/26 23:33:14;;;;;;;3.70;2.95;;;10.70;26.70;;;;;;6132309;23;20199;-91
2021/04/26 23:35:40;;;;;;;3.30;2.40;;;10.90;27.00;;;;;;6132449;23;20179;-92
2021/04/26 23:38:06;;;;;;;3.00;2.57;;;10.60;27.20;;;;;;6132541;23;20148;-92
2021/04/26 23:40:31;;;;;;;4.50;2.70;;;10.70;27.40;;;;;;6132401;23;20223;-92
2021/04/26 23:42:59;;;;;;;2.50;2.30;;;10.70;27.40;;;;;;6132320;23;20143;-92
2021/04/26 23:45:26;;;;;;;3.58;2.50;;;10.40;27.30;;;;;;6132328;23;20506;-92
2021/04/26 23:47:52;;;;;;;2.45;2.20;;;10.20;27.00;;;;;;6132053;23;20159;-92
2021/04/26 23:50:18;;;;;;;3.57;3.30;;;10.20;27.30;;;;;;6132067;23;20235;-92
2021/04/26 23:52:44;;;;;;;3.85;2.20;;;10.30;27.60;;;;;;6131833;23;20923;-93
2021/04/26 23:55:13;;;;;;;3.13;2.80;;;10.20;27.80;;;;;;6131982;23;20171;-93
2021/04/26 23:57:39;;;;;;;2.90;2.60;;;10.00;27.90;;;;;;6132160;23;20714;-92
